sensor_id;sensor_type;location;lat;lon;timestamp;temperature;humidity
36652;DHT22;53334;51.976;20.144;2023-03-14T00:01:09;25.80;48.70
36652;DHT22;53334;51.976;20.144;2023-03-14T00:03:43;25.80;48.60
36652;DHT22;53334;51.976;20.144;2023-03-14T00:06:17;25.80;48.60
36652;DHT22;53334;51.976;20.144;2023-03-14T00:08:51;25.80;48.50
36652;DHT22;53334;51.976;20.144;2023-03-14T00:11:26;25.80;48.40
36652;DHT22;53334;51.976;20.144;2023-03-14T00:14:00;25.80;48.30
36652;DHT22;53334;51.976;20.144;2023-03-14T00:16:34;25.80;48.20
36652;DHT22;53334;51.976;20.144;2023-03-14T00:19:08;25.80;48.20
36652;DHT22;53334;51.976;20.144;2023-03-14T00:21:42;25.80;48.20
36652;DHT22;53334;51.976;20.144;2023-03-14T00:24:15;25.80;48.20
36652;DHT22;53334;51.976;20.144;2023-03-14T00:26:48;25.80;48.20
36652;DHT22;53334;51.976;20.144;2023-03-14T00:29:23;25.80;48.10
36652;DHT22;53334;51.976;20.144;2023-03-14T00:31:57;25.80;48.10
36652;DHT22;53334;51.976;20.144;2023-03-14T00:34:30;25.80;48.10
36652;DHT22;53334;51.976;20.144;2023-03-14T00:37:05;25.80;48.20
36652;DHT22;53334;51.976;20.144;2023-03-14T00:39:38;25.80;48.20
36652;DHT22;53334;51.976;20.144;2023-03-14T00:42:12;25.80;48.10
36652;DHT22;53334;51.976;20.144;2023-03-14T00:44:46;25.80;48.00
36652;DHT22;53334;51.976;20.144;2023-03-14T00:47:20;25.80;48.00
36652;DHT22;53334;51.976;20.144;2023-03-14T00:49:53;25.80;48.00
36652;DHT22;53334;51.976;20.144;2023-03-14T00:52:26;25.80;47.90
36652;DHT22;53334;51.976;20.144;2023-03-14T00:55:00;25.80;47.90
36652;DHT22;53334;51.976;20.144;2023-03-14T00:57:33;25.80;47.80
36652;DHT22;53334;51.976;20.144;2023-03-14T01:00:09;25.80;47.80
36652;DHT22;53334;51.976;20.144;2023-03-14T01:02:44;25.80;47.80
36652;DHT22;53334;51.976;20.144;2023-03-14T01:05:18;25.80;47.70
36652;DHT22;53334;51.976;20.144;2023-03-14T01:07:52;25.80;47.70
36652;DHT22;53334;51.976;20.144;2023-03-14T01:10:26;25.80;47.70
36652;DHT22;53334;51.976;20.144;2023-03-14T01:12:59;25.80;47.70
36652;DHT22;53334;51.976;20.144;2023-03-14T01:15:35;25.80;47.80
36652;DHT22;53334;51.976;20.144;2023-03-14T01:18:08;25.80;47.80
36652;DHT22;53334;51.976;20.144;2023-03-14T01:20:41;25.80;47.80
36652;DHT22;53334;51.976;20.144;2023-03-14T01:23:15;25.80;47.80
36652;DHT22;53334;51.976;20.144;2023-03-14T01:25:48;25.80;47.70
36652;DHT22;53334;51.976;20.144;2023-03-14T01:28:23;25.80;47.40
36652;DHT22;53334;51.976;20.144;2023-03-14T01:31:02;25.80;47.40
36652;DHT22;53334;51.976;20.144;2023-03-14T01:33:36;25.80;47.40
36652;DHT22;53334;51.976;20.144;2023-03-14T01:36:10;25.80;47.20
36652;DHT22;53334;51.976;20.144;2023-03-14T01:38:44;25.80;47.20
36652;DHT22;53334;51.976;20.144;2023-03-14T01:41:22;25.80;47.10
36652;DHT22;53334;51.976;20.144;2023-03-14T01:43:57;25.80;47.00
36652;DHT22;53334;51.976;20.144;2023-03-14T01:46:40;25.80;47.50
36652;DHT22;53334;51.976;20.144;2023-03-14T01:49:22;25.80;48.20
36652;DHT22;53334;51.976;20.144;2023-03-14T01:52:07;25.80;48.20
36652;DHT22;53334;51.976;20.144;2023-03-14T01:54:44;25.80;47.90
36652;DHT22;53334;51.976;20.144;2023-03-14T01:57:21;25.80;47.70
36652;DHT22;53334;51.976;20.144;2023-03-14T01:59:59;25.80;47.70
36652;DHT22;53334;51.976;20.144;2023-03-14T02:02:46;25.80;47.80
36652;DHT22;53334;51.976;20.144;2023-03-14T02:05:24;25.80;47.60
36652;DHT22;53334;51.976;20.144;2023-03-14T02:08:08;25.80;47.50
36652;DHT22;53334;51.976;20.144;2023-03-14T02:10:50;25.80;47.50
36652;DHT22;53334;51.976;20.144;2023-03-14T02:13:39;25.80;47.70
36652;DHT22;53334;51.976;20.144;2023-03-14T02:16:26;25.80;47.40
36652;DHT22;53334;51.976;20.144;2023-03-14T02:19:40;25.80;47.40
36652;DHT22;53334;51.976;20.144;2023-03-14T02:22:41;25.80;47.50
36652;DHT22;53334;51.976;20.144;2023-03-14T02:25:21;25.80;47.50
36652;DHT22;53334;51.976;20.144;2023-03-14T02:28:00;25.80;47.50
36652;DHT22;53334;51.976;20.144;2023-03-14T02:30:34;25.80;47.40
36652;DHT22;53334;51.976;20.144;2023-03-14T02:33:10;25.80;47.40
36652;DHT22;53334;51.976;20.144;2023-03-14T02:35:52;25.80;47.40
36652;DHT22;53334;51.976;20.144;2023-03-14T02:38:30;25.80;47.40
36652;DHT22;53334;51.976;20.144;2023-03-14T02:41:06;25.80;47.20
36652;DHT22;53334;51.976;20.144;2023-03-14T02:43:47;25.80;47.20
36652;DHT22;53334;51.976;20.144;2023-03-14T02:46:21;25.80;47.20
36652;DHT22;53334;51.976;20.144;2023-03-14T02:48:57;25.80;47.20
36652;DHT22;53334;51.976;20.144;2023-03-14T02:51:32;25.80;47.20
36652;DHT22;53334;51.976;20.144;2023-03-14T02:54:06;25.80;47.30
36652;DHT22;53334;51.976;20.144;2023-03-14T02:56:40;25.80;47.40
36652;DHT22;53334;51.976;20.144;2023-03-14T02:59:18;25.80;47.30
36652;DHT22;53334;51.976;20.144;2023-03-14T03:02:01;25.80;47.20
36652;DHT22;53334;51.976;20.144;2023-03-14T03:04:36;25.80;47.30
36652;DHT22;53334;51.976;20.144;2023-03-14T03:07:09;25.80;47.20
36652;DHT22;53334;51.976;20.144;2023-03-14T03:09:43;25.80;47.30
36652;DHT22;53334;51.976;20.144;2023-03-14T03:12:17;25.80;47.50
36652;DHT22;53334;51.976;20.144;2023-03-14T03:14:52;25.80;47.50
36652;DHT22;53334;51.976;20.144;2023-03-14T03:17:25;25.80;47.40
36652;DHT22;53334;51.976;20.144;2023-03-14T03:19:58;25.80;47.30
36652;DHT22;53334;51.976;20.144;2023-03-14T03:22:32;25.80;47.30
36652;DHT22;53334;51.976;20.144;2023-03-14T03:25:08;25.80;47.20
36652;DHT22;53334;51.976;20.144;2023-03-14T03:27:41;25.80;47.00
36652;DHT22;53334;51.976;20.144;2023-03-14T03:30:17;25.80;47.20
36652;DHT22;53334;51.976;20.144;2023-03-14T03:32:51;25.80;47.20
36652;DHT22;53334;51.976;20.144;2023-03-14T03:35:25;25.80;47.20
36652;DHT22;53334;51.976;20.144;2023-03-14T03:38:00;25.80;47.20
36652;DHT22;53334;51.976;20.144;2023-03-14T03:40:34;25.80;47.00
36652;DHT22;53334;51.976;20.144;2023-03-14T03:43:08;25.80;47.10
36652;DHT22;53334;51.976;20.144;2023-03-14T03:45:45;25.80;47.10
36652;DHT22;53334;51.976;20.144;2023-03-14T03:48:18;25.80;46.90
36652;DHT22;53334;51.976;20.144;2023-03-14T03:50:52;25.80;46.90
36652;DHT22;53334;51.976;20.144;2023-03-14T03:53:27;25.80;46.90
36652;DHT22;53334;51.976;20.144;2023-03-14T03:56:08;25.80;46.70
36652;DHT22;53334;51.976;20.144;2023-03-14T03:58:44;25.80;46.80
36652;DHT22;53334;51.976;20.144;2023-03-14T04:01:18;25.80;46.80
36652;DHT22;53334;51.976;20.144;2023-03-14T04:03:55;25.80;46.90
36652;DHT22;53334;51.976;20.144;2023-03-14T04:06:29;25.80;46.80
36652;DHT22;53334;51.976;20.144;2023-03-14T04:09:04;25.80;46.70
36652;DHT22;53334;51.976;20.144;2023-03-14T04:11:43;25.80;46.70
36652;DHT22;53334;51.976;20.144;2023-03-14T04:14:25;25.80;46.70
36652;DHT22;53334;51.976;20.144;2023-03-14T04:17:08;25.80;46.50
36652;DHT22;53334;51.976;20.144;2023-03-14T04:19:41;25.80;46.50
36652;DHT22;53334;51.976;20.144;2023-03-14T04:22:15;25.80;46.60
36652;DHT22;53334;51.976;20.144;2023-03-14T04:24:54;25.80;46.60
36652;DHT22;53334;51.976;20.144;2023-03-14T04:27:28;25.80;46.40
36652;DHT22;53334;51.976;20.144;2023-03-14T04:30:02;25.80;46.40
36652;DHT22;53334;51.976;20.144;2023-03-14T04:32:51;25.80;46.30
36652;DHT22;53334;51.976;20.144;2023-03-14T04:35:29;25.80;46.20
36652;DHT22;53334;51.976;20.144;2023-03-14T04:38:07;25.80;46.10
36652;DHT22;53334;51.976;20.144;2023-03-14T04:40:41;25.80;45.90
36652;DHT22;53334;51.976;20.144;2023-03-14T04:43:16;25.80;45.90
36652;DHT22;53334;51.976;20.144;2023-03-14T04:45:55;25.80;45.80
36652;DHT22;53334;51.976;20.144;2023-03-14T04:48:30;25.80;45.70
36652;DHT22;53334;51.976;20.144;2023-03-14T04:51:05;25.80;45.60
36652;DHT22;53334;51.976;20.144;2023-03-14T04:53:40;25.80;45.50
36652;DHT22;53334;51.976;20.144;2023-03-14T04:56:16;25.80;45.50
36652;DHT22;53334;51.976;20.144;2023-03-14T04:58:49;25.80;45.50
36652;DHT22;53334;51.976;20.144;2023-03-14T05:01:23;25.80;45.40
36652;DHT22;53334;51.976;20.144;2023-03-14T05:04:16;25.80;45.40
36652;DHT22;53334;51.976;20.144;2023-03-14T05:07:07;25.80;45.40
36652;DHT22;53334;51.976;20.144;2023-03-14T05:10:19;25.80;45.40
36652;DHT22;53334;51.976;20.144;2023-03-14T05:13:14;25.80;45.20
36652;DHT22;53334;51.976;20.144;2023-03-14T05:16:11;25.80;45.30
36652;DHT22;53334;51.976;20.144;2023-03-14T05:18:56;25.70;45.20
36652;DHT22;53334;51.976;20.144;2023-03-14T05:21:48;25.70;45.20
36652;DHT22;53334;51.976;20.144;2023-03-14T05:24:47;25.70;45.20
36652;DHT22;53334;51.976;20.144;2023-03-14T05:27:53;25.70;45.00
36652;DHT22;53334;51.976;20.144;2023-03-14T05:30:46;25.70;45.20
36652;DHT22;53334;51.976;20.144;2023-03-14T05:33:47;25.70;45.10
36652;DHT22;53334;51.976;20.144;2023-03-14T05:36:43;25.70;45.00
36652;DHT22;53334;51.976;20.144;2023-03-14T05:39:47;25.70;44.90
36652;DHT22;53334;51.976;20.144;2023-03-14T05:42:36;25.80;44.70
36652;DHT22;53334;51.976;20.144;2023-03-14T05:45:28;25.80;44.60
36652;DHT22;53334;51.976;20.144;2023-03-14T05:48:19;25.80;44.60
36652;DHT22;53334;51.976;20.144;2023-03-14T05:51:16;25.80;44.50
36652;DHT22;53334;51.976;20.144;2023-03-14T05:53:58;25.80;44.40
36652;DHT22;53334;51.976;20.144;2023-03-14T05:56:47;25.80;44.30
36652;DHT22;53334;51.976;20.144;2023-03-14T05:59:35;25.80;44.10
36652;DHT22;53334;51.976;20.144;2023-03-14T06:02:32;25.80;44.10
36652;DHT22;53334;51.976;20.144;2023-03-14T06:05:15;25.80;44.60
36652;DHT22;53334;51.976;20.144;2023-03-14T06:07:49;25.80;44.80
36652;DHT22;53334;51.976;20.144;2023-03-14T06:10:22;25.80;44.10
36652;DHT22;53334;51.976;20.144;2023-03-14T06:12:58;25.80;43.90
36652;DHT22;53334;51.976;20.144;2023-03-14T06:15:31;25.80;43.70
36652;DHT22;53334;51.976;20.144;2023-03-14T06:18:05;25.80;44.00
36652;DHT22;53334;51.976;20.144;2023-03-14T06:20:40;25.80;43.30
36652;DHT22;53334;51.976;20.144;2023-03-14T06:23:16;25.80;43.10
36652;DHT22;53334;51.976;20.144;2023-03-14T06:25:49;25.80;43.00
36652;DHT22;53334;51.976;20.144;2023-03-14T06:28:24;25.80;43.00
36652;DHT22;53334;51.976;20.144;2023-03-14T06:31:02;25.80;43.00
36652;DHT22;53334;51.976;20.144;2023-03-14T06:33:42;25.80;43.00
36652;DHT22;53334;51.976;20.144;2023-03-14T06:36:16;25.80;43.00
36652;DHT22;53334;51.976;20.144;2023-03-14T06:38:51;25.80;43.10
36652;DHT22;53334;51.976;20.144;2023-03-14T06:41:25;25.80;43.30
36652;DHT22;53334;51.976;20.144;2023-03-14T06:44:00;25.80;43.40
36652;DHT22;53334;51.976;20.144;2023-03-14T06:46:33;25.80;43.20
36652;DHT22;53334;51.976;20.144;2023-03-14T06:49:07;25.80;43.30
36652;DHT22;53334;51.976;20.144;2023-03-14T06:51:41;25.80;43.40
36652;DHT22;53334;51.976;20.144;2023-03-14T06:54:15;25.80;43.70
36652;DHT22;53334;51.976;20.144;2023-03-14T06:56:49;25.80;43.70
36652;DHT22;53334;51.976;20.144;2023-03-14T06:59:24;25.80;43.90
36652;DHT22;53334;51.976;20.144;2023-03-14T07:01:57;25.80;43.90
36652;DHT22;53334;51.976;20.144;2023-03-14T07:04:31;25.80;44.00
36652;DHT22;53334;51.976;20.144;2023-03-14T07:07:04;25.90;44.00
36652;DHT22;53334;51.976;20.144;2023-03-14T07:09:39;25.90;44.00
36652;DHT22;53334;51.976;20.144;2023-03-14T07:12:12;25.90;44.40
36652;DHT22;53334;51.976;20.144;2023-03-14T07:14:47;25.80;44.10
36652;DHT22;53334;51.976;20.144;2023-03-14T07:17:20;25.90;44.30
36652;DHT22;53334;51.976;20.144;2023-03-14T07:19:54;25.90;44.30
36652;DHT22;53334;51.976;20.144;2023-03-14T07:22:28;25.90;44.50
36652;DHT22;53334;51.976;20.144;2023-03-14T07:25:01;25.90;44.50
36652;DHT22;53334;51.976;20.144;2023-03-14T07:27:35;25.90;44.70
36652;DHT22;53334;51.976;20.144;2023-03-14T07:30:11;25.90;44.70
36652;DHT22;53334;51.976;20.144;2023-03-14T07:32:44;25.90;44.00
36652;DHT22;53334;51.976;20.144;2023-03-14T07:35:19;25.80;43.90
36652;DHT22;53334;51.976;20.144;2023-03-14T07:37:52;25.90;43.80
36652;DHT22;53334;51.976;20.144;2023-03-14T07:40:33;25.90;43.80
36652;DHT22;53334;51.976;20.144;2023-03-14T07:43:08;25.90;43.70
36652;DHT22;53334;51.976;20.144;2023-03-14T07:45:53;25.90;43.70
36652;DHT22;53334;51.976;20.144;2023-03-14T07:48:30;25.90;43.80
36652;DHT22;53334;51.976;20.144;2023-03-14T07:51:04;25.90;43.60
36652;DHT22;53334;51.976;20.144;2023-03-14T07:53:37;25.90;43.50
36652;DHT22;53334;51.976;20.144;2023-03-14T07:56:11;25.90;43.40
36652;DHT22;53334;51.976;20.144;2023-03-14T07:58:44;25.90;43.60
36652;DHT22;53334;51.976;20.144;2023-03-14T08:01:19;25.90;43.40
36652;DHT22;53334;51.976;20.144;2023-03-14T08:03:53;25.90;43.30
36652;DHT22;53334;51.976;20.144;2023-03-14T08:06:26;25.90;43.10
36652;DHT22;53334;51.976;20.144;2023-03-14T08:08:59;25.90;43.20
36652;DHT22;53334;51.976;20.144;2023-03-14T08:11:33;25.90;43.30
36652;DHT22;53334;51.976;20.144;2023-03-14T08:14:06;25.90;43.40
36652;DHT22;53334;51.976;20.144;2023-03-14T08:16:41;25.90;43.50
36652;DHT22;53334;51.976;20.144;2023-03-14T08:19:14;26.00;43.70
36652;DHT22;53334;51.976;20.144;2023-03-14T08:21:48;26.00;43.80
36652;DHT22;53334;51.976;20.144;2023-03-14T08:24:21;26.00;43.90
36652;DHT22;53334;51.976;20.144;2023-03-14T08:26:55;26.00;43.70
36652;DHT22;53334;51.976;20.144;2023-03-14T08:29:28;26.00;43.50
36652;DHT22;53334;51.976;20.144;2023-03-14T08:32:03;26.00;43.20
36652;DHT22;53334;51.976;20.144;2023-03-14T08:34:37;26.10;43.10
36652;DHT22;53334;51.976;20.144;2023-03-14T08:37:10;26.10;42.90
36652;DHT22;53334;51.976;20.144;2023-03-14T08:39:57;26.10;43.30
36652;DHT22;53334;51.976;20.144;2023-03-14T08:42:31;26.10;42.70
36652;DHT22;53334;51.976;20.144;2023-03-14T08:45:06;26.10;42.70
36652;DHT22;53334;51.976;20.144;2023-03-14T08:47:41;26.10;42.70
36652;DHT22;53334;51.976;20.144;2023-03-14T08:50:15;26.10;43.30
36652;DHT22;53334;51.976;20.144;2023-03-14T08:52:49;26.10;43.00
36652;DHT22;53334;51.976;20.144;2023-03-14T08:55:22;26.10;43.10
36652;DHT22;53334;51.976;20.144;2023-03-14T08:57:56;26.10;43.20
36652;DHT22;53334;51.976;20.144;2023-03-14T09:00:29;26.10;43.30
36652;DHT22;53334;51.976;20.144;2023-03-14T09:03:04;26.10;43.20
36652;DHT22;53334;51.976;20.144;2023-03-14T09:05:37;26.10;43.20
36652;DHT22;53334;51.976;20.144;2023-03-14T09:08:11;26.10;43.10
36652;DHT22;53334;51.976;20.144;2023-03-14T09:10:44;26.10;43.10
36652;DHT22;53334;51.976;20.144;2023-03-14T09:13:17;26.10;43.00
36652;DHT22;53334;51.976;20.144;2023-03-14T09:15:51;26.10;42.90
36652;DHT22;53334;51.976;20.144;2023-03-14T09:18:26;26.10;42.70
36652;DHT22;53334;51.976;20.144;2023-03-14T09:21:01;26.10;42.60
36652;DHT22;53334;51.976;20.144;2023-03-14T09:23:34;26.10;42.50
36652;DHT22;53334;51.976;20.144;2023-03-14T09:26:07;26.10;42.40
36652;DHT22;53334;51.976;20.144;2023-03-14T09:28:41;26.10;43.30
36652;DHT22;53334;51.976;20.144;2023-03-14T09:31:14;26.10;42.90
36652;DHT22;53334;51.976;20.144;2023-03-14T09:33:49;26.00;42.90
36652;DHT22;53334;51.976;20.144;2023-03-14T09:36:22;26.00;39.40
36652;DHT22;53334;51.976;20.144;2023-03-14T09:38:56;25.90;35.30
36652;DHT22;53334;51.976;20.144;2023-03-14T09:41:30;25.80;35.50
36652;DHT22;53334;51.976;20.144;2023-03-14T09:44:06;25.70;35.40
36652;DHT22;53334;51.976;20.144;2023-03-14T09:49:52;25.70;36.90
36652;DHT22;53334;51.976;20.144;2023-03-14T09:52:29;25.70;36.90
36652;DHT22;53334;51.976;20.144;2023-03-14T09:55:05;25.70;36.70
36652;DHT22;53334;51.976;20.144;2023-03-14T09:57:43;25.80;36.90
36652;DHT22;53334;51.976;20.144;2023-03-14T10:00:21;25.80;37.10
36652;DHT22;53334;51.976;20.144;2023-03-14T10:02:59;25.80;37.40
36652;DHT22;53334;51.976;20.144;2023-03-14T10:05:35;25.80;37.20
36652;DHT22;53334;51.976;20.144;2023-03-14T10:08:10;25.90;37.30
36652;DHT22;53334;51.976;20.144;2023-03-14T10:10:44;25.90;37.60
36652;DHT22;53334;51.976;20.144;2023-03-14T10:13:19;25.90;37.90
36652;DHT22;53334;51.976;20.144;2023-03-14T10:15:55;26.00;38.60
36652;DHT22;53334;51.976;20.144;2023-03-14T10:18:29;26.00;39.10
36652;DHT22;53334;51.976;20.144;2023-03-14T10:21:06;26.00;39.20
36652;DHT22;53334;51.976;20.144;2023-03-14T10:23:40;26.00;39.40
36652;DHT22;53334;51.976;20.144;2023-03-14T10:26:15;26.00;39.70
36652;DHT22;53334;51.976;20.144;2023-03-14T10:28:52;26.00;40.10
36652;DHT22;53334;51.976;20.144;2023-03-14T10:31:25;26.00;40.50
36652;DHT22;53334;51.976;20.144;2023-03-14T10:34:01;26.00;40.90
36652;DHT22;53334;51.976;20.144;2023-03-14T10:36:36;26.00;41.10
36652;DHT22;53334;51.976;20.144;2023-03-14T10:39:25;26.10;41.70
36652;DHT22;53334;51.976;20.144;2023-03-14T10:42:05;26.10;42.00
36652;DHT22;53334;51.976;20.144;2023-03-14T10:44:40;26.10;42.20
36652;DHT22;53334;51.976;20.144;2023-03-14T10:47:18;26.00;42.20
36652;DHT22;53334;51.976;20.144;2023-03-14T10:49:52;26.10;42.40
36652;DHT22;53334;51.976;20.144;2023-03-14T10:52:28;26.00;42.40
36652;DHT22;53334;51.976;20.144;2023-03-14T10:55:24;26.00;42.40
36652;DHT22;53334;51.976;20.144;2023-03-14T10:57:58;26.00;42.50
36652;DHT22;53334;51.976;20.144;2023-03-14T11:00:31;26.00;42.60
36652;DHT22;53334;51.976;20.144;2023-03-14T11:03:07;26.00;42.60
36652;DHT22;53334;51.976;20.144;2023-03-14T11:05:47;26.00;42.70
36652;DHT22;53334;51.976;20.144;2023-03-14T11:08:27;26.00;42.70
36652;DHT22;53334;51.976;20.144;2023-03-14T11:11:13;26.00;42.90
36652;DHT22;53334;51.976;20.144;2023-03-14T11:13:56;25.90;42.80
36652;DHT22;53334;51.976;20.144;2023-03-14T11:16:38;25.90;42.90
36652;DHT22;53334;51.976;20.144;2023-03-14T11:19:43;25.90;42.90
36652;DHT22;53334;51.976;20.144;2023-03-14T11:22:26;25.90;42.90
36652;DHT22;53334;51.976;20.144;2023-03-14T11:25:12;25.90;43.00
36652;DHT22;53334;51.976;20.144;2023-03-14T11:27:52;25.90;42.90
36652;DHT22;53334;51.976;20.144;2023-03-14T11:30:34;25.90;42.90
36652;DHT22;53334;51.976;20.144;2023-03-14T11:33:14;25.90;43.00
36652;DHT22;53334;51.976;20.144;2023-03-14T11:35:55;25.90;43.30
36652;DHT22;53334;51.976;20.144;2023-03-14T11:38:34;25.90;43.70
36652;DHT22;53334;51.976;20.144;2023-03-14T11:41:14;25.90;44.00
36652;DHT22;53334;51.976;20.144;2023-03-14T11:43:54;25.90;44.70
36652;DHT22;53334;51.976;20.144;2023-03-14T11:46:31;25.90;45.10
36652;DHT22;53334;51.976;20.144;2023-03-14T11:49:12;25.90;45.40
36652;DHT22;53334;51.976;20.144;2023-03-14T11:51:51;25.90;46.00
36652;DHT22;53334;51.976;20.144;2023-03-14T11:54:32;25.90;46.20
36652;DHT22;53334;51.976;20.144;2023-03-14T11:57:12;25.90;46.50
36652;DHT22;53334;51.976;20.144;2023-03-14T11:59:51;25.90;46.60
36652;DHT22;53334;51.976;20.144;2023-03-14T12:02:31;25.90;46.70
36652;DHT22;53334;51.976;20.144;2023-03-14T12:05:40;25.90;47.40
36652;DHT22;53334;51.976;20.144;2023-03-14T12:08:44;25.90;48.20
36652;DHT22;53334;51.976;20.144;2023-03-14T12:11:25;25.90;48.60
36652;DHT22;53334;51.976;20.144;2023-03-14T12:14:02;25.90;48.30
36652;DHT22;53334;51.976;20.144;2023-03-14T12:16:38;25.90;48.20
36652;DHT22;53334;51.976;20.144;2023-03-14T12:22:26;25.90;48.00
36652;DHT22;53334;51.976;20.144;2023-03-14T12:25:04;26.00;47.80
36652;DHT22;53334;51.976;20.144;2023-03-14T12:27:42;25.90;47.60
36652;DHT22;53334;51.976;20.144;2023-03-14T12:30:25;25.90;47.30
36652;DHT22;53334;51.976;20.144;2023-03-14T12:33:27;25.90;46.90
36652;DHT22;53334;51.976;20.144;2023-03-14T12:36:11;25.90;47.30
36652;DHT22;53334;51.976;20.144;2023-03-14T12:41:51;25.90;47.80
36652;DHT22;53334;51.976;20.144;2023-03-14T12:44:45;25.90;48.10
36652;DHT22;53334;51.976;20.144;2023-03-14T12:47:50;25.90;48.70
36652;DHT22;53334;51.976;20.144;2023-03-14T12:50:30;25.90;49.50
36652;DHT22;53334;51.976;20.144;2023-03-14T12:56:27;26.00;50.50
36652;DHT22;53334;51.976;20.144;2023-03-14T12:59:32;26.00;50.50
36652;DHT22;53334;51.976;20.144;2023-03-14T13:02:23;26.00;50.40
36652;DHT22;53334;51.976;20.144;2023-03-14T13:05:05;26.00;50.80
36652;DHT22;53334;51.976;20.144;2023-03-14T13:08:08;26.00;50.70
36652;DHT22;53334;51.976;20.144;2023-03-14T13:10:47;26.00;50.80
36652;DHT22;53334;51.976;20.144;2023-03-14T13:13:24;26.00;50.70
36652;DHT22;53334;51.976;20.144;2023-03-14T13:16:00;26.00;51.00
36652;DHT22;53334;51.976;20.144;2023-03-14T13:18:37;26.10;51.30
36652;DHT22;53334;51.976;20.144;2023-03-14T13:21:15;26.10;51.50
36652;DHT22;53334;51.976;20.144;2023-03-14T13:23:57;26.10;51.30
36652;DHT22;53334;51.976;20.144;2023-03-14T13:26:35;26.10;51.20
36652;DHT22;53334;51.976;20.144;2023-03-14T13:29:15;26.10;50.60
36652;DHT22;53334;51.976;20.144;2023-03-14T13:31:50;26.10;50.20
36652;DHT22;53334;51.976;20.144;2023-03-14T13:34:25;26.10;50.10
36652;DHT22;53334;51.976;20.144;2023-03-14T13:37:00;26.10;49.70
36652;DHT22;53334;51.976;20.144;2023-03-14T13:39:34;26.10;49.50
36652;DHT22;53334;51.976;20.144;2023-03-14T13:42:14;26.10;49.30
36652;DHT22;53334;51.976;20.144;2023-03-14T13:44:48;26.10;49.10
36652;DHT22;53334;51.976;20.144;2023-03-14T13:47:24;26.10;49.50
36652;DHT22;53334;51.976;20.144;2023-03-14T13:49:58;26.10;48.70
36652;DHT22;53334;51.976;20.144;2023-03-14T13:52:36;26.00;48.40
36652;DHT22;53334;51.976;20.144;2023-03-14T13:55:14;26.00;48.30
36652;DHT22;53334;51.976;20.144;2023-03-14T13:57:49;26.00;48.20
36652;DHT22;53334;51.976;20.144;2023-03-14T14:00:27;26.00;48.00
36652;DHT22;53334;51.976;20.144;2023-03-14T14:03:02;26.00;47.90
36652;DHT22;53334;51.976;20.144;2023-03-14T14:05:35;26.00;47.70
36652;DHT22;53334;51.976;20.144;2023-03-14T14:08:13;26.00;47.60
36652;DHT22;53334;51.976;20.144;2023-03-14T14:10:48;26.00;47.60
36652;DHT22;53334;51.976;20.144;2023-03-14T14:13:23;26.00;47.40
36652;DHT22;53334;51.976;20.144;2023-03-14T14:16:00;26.00;47.30
36652;DHT22;53334;51.976;20.144;2023-03-14T14:18:36;25.90;47.10
36652;DHT22;53334;51.976;20.144;2023-03-14T14:21:11;25.90;46.90
36652;DHT22;53334;51.976;20.144;2023-03-14T14:23:48;25.90;46.90
36652;DHT22;53334;51.976;20.144;2023-03-14T14:26:22;25.90;46.80
36652;DHT22;53334;51.976;20.144;2023-03-14T14:29:00;25.90;46.70
36652;DHT22;53334;51.976;20.144;2023-03-14T14:31:34;25.90;46.70
36652;DHT22;53334;51.976;20.144;2023-03-14T14:34:19;25.90;46.60
36652;DHT22;53334;51.976;20.144;2023-03-14T14:36:52;25.90;46.50
36652;DHT22;53334;51.976;20.144;2023-03-14T14:39:28;25.90;46.30
36652;DHT22;53334;51.976;20.144;2023-03-14T14:42:03;25.90;46.20
36652;DHT22;53334;51.976;20.144;2023-03-14T14:44:36;25.90;46.80
36652;DHT22;53334;51.976;20.144;2023-03-14T14:47:12;25.90;46.30
36652;DHT22;53334;51.976;20.144;2023-03-14T14:49:48;25.90;46.30
36652;DHT22;53334;51.976;20.144;2023-03-14T14:52:31;25.90;46.30
36652;DHT22;53334;51.976;20.144;2023-03-14T14:55:17;25.90;46.40
36652;DHT22;53334;51.976;20.144;2023-03-14T14:57:53;25.90;46.50
36652;DHT22;53334;51.976;20.144;2023-03-14T15:00:28;25.90;46.50
36652;DHT22;53334;51.976;20.144;2023-03-14T15:03:02;25.90;46.50
36652;DHT22;53334;51.976;20.144;2023-03-14T15:05:38;25.90;46.50
36652;DHT22;53334;51.976;20.144;2023-03-14T15:08:12;25.90;46.70
36652;DHT22;53334;51.976;20.144;2023-03-14T15:10:47;25.90;46.70
36652;DHT22;53334;51.976;20.144;2023-03-14T15:13:21;25.90;46.90
36652;DHT22;53334;51.976;20.144;2023-03-14T15:15:55;25.90;47.00
36652;DHT22;53334;51.976;20.144;2023-03-14T15:18:29;26.00;47.20
36652;DHT22;53334;51.976;20.144;2023-03-14T15:21:03;26.00;47.40
36652;DHT22;53334;51.976;20.144;2023-03-14T15:23:37;26.00;47.60
36652;DHT22;53334;51.976;20.144;2023-03-14T15:26:14;26.00;47.80
36652;DHT22;53334;51.976;20.144;2023-03-14T15:28:48;26.00;48.00
36652;DHT22;53334;51.976;20.144;2023-03-14T15:31:22;26.10;48.20
36652;DHT22;53334;51.976;20.144;2023-03-14T15:33:55;26.00;48.30
36652;DHT22;53334;51.976;20.144;2023-03-14T15:36:30;26.00;48.30
36652;DHT22;53334;51.976;20.144;2023-03-14T15:39:05;26.10;48.60
36652;DHT22;53334;51.976;20.144;2023-03-14T15:41:40;26.10;48.80
36652;DHT22;53334;51.976;20.144;2023-03-14T15:44:14;26.10;49.50
36652;DHT22;53334;51.976;20.144;2023-03-14T15:46:47;26.10;48.90
36652;DHT22;53334;51.976;20.144;2023-03-14T15:49:21;26.10;48.90
36652;DHT22;53334;51.976;20.144;2023-03-14T15:51:54;26.10;48.90
36652;DHT22;53334;51.976;20.144;2023-03-14T15:54:29;26.10;48.90
36652;DHT22;53334;51.976;20.144;2023-03-14T15:57:04;26.10;49.00
36652;DHT22;53334;51.976;20.144;2023-03-14T15:59:38;26.10;49.10
36652;DHT22;53334;51.976;20.144;2023-03-14T16:02:12;26.10;49.10
36652;DHT22;53334;51.976;20.144;2023-03-14T16:04:45;26.20;49.20
36652;DHT22;53334;51.976;20.144;2023-03-14T16:07:19;26.10;49.30
36652;DHT22;53334;51.976;20.144;2023-03-14T16:09:52;26.20;49.50
36652;DHT22;53334;51.976;20.144;2023-03-14T16:12:27;26.20;49.40
36652;DHT22;53334;51.976;20.144;2023-03-14T16:15:00;26.10;49.30
36652;DHT22;53334;51.976;20.144;2023-03-14T16:17:34;26.20;49.40
36652;DHT22;53334;51.976;20.144;2023-03-14T16:20:10;26.10;49.30
36652;DHT22;53334;51.976;20.144;2023-03-14T16:22:43;26.10;49.20
36652;DHT22;53334;51.976;20.144;2023-03-14T16:25:17;26.10;49.00
36652;DHT22;53334;51.976;20.144;2023-03-14T16:27:52;26.20;49.10
36652;DHT22;53334;51.976;20.144;2023-03-14T16:30:42;26.10;49.10
36652;DHT22;53334;51.976;20.144;2023-03-14T16:33:15;26.10;49.00